Time;durP1;ratioP1;P1;durP2;ratioP2;P2;SDS_P1;SDS_P2;PMS_P1;PMS_P2;Temp;Humidity;BMP_temperature;BMP_pressure;BME280_temperature;BME280_humidity;BME280_pressure;Samples;Min_cycle;Max_cycle;Signal;HPM_P1;HPM_P2
2022/04/07 00:02:15;;;;;;;9.00;3.50;;;;;;;9.37;76.14;98756.56;5054742;28;20075;-65
2022/04/07 00:04:42;;;;;;;10.80;2.80;;;;;;;9.32;75.77;98748.22;5068520;28;20432;-64
2022/04/07 00:07:09;;;;;;;6.55;2.80;;;;;;;9.32;76.05;98745.59;5046153;28;20060;-62
2022/04/07 00:09:36;;;;;;;5.90;2.78;;;;;;;9.30;76.35;98739.66;5061944;28;20048;-63
2022/04/07 00:12:04;;;;;;;8.52;2.78;;;;;;;9.33;76.43;98734.16;5061711;28;20071;-63
2022/04/07 00:14:31;;;;;;;7.50;2.80;;;;;;;9.33;76.57;98731.53;5057944;28;20045;-63
2022/04/07 00:16:59;;;;;;;6.78;2.80;;;;;;;9.30;76.77;98732.59;5061375;28;20045;-63
2022/04/07 00:19:26;;;;;;;8.07;2.55;;;;;;;9.29;76.36;98720.44;5061570;28;20048;-63
2022/04/07 00:21:57;;;;;;;8.32;4.13;;;;;;;9.25;76.10;98718.19;5049223;28;20606;-64
2022/04/07 00:24:24;;;;;;;8.45;2.92;;;;;;;9.23;76.73;98712.22;5060790;28;20045;-64
2022/04/07 00:26:51;;;;;;;7.18;2.78;;;;;;;9.23;77.02;98712.22;5063240;28;20051;-63
2022/04/07 00:29:18;;;;;;;9.40;2.80;;;;;;;9.21;77.25;98708.91;5044667;28;20049;-64
2022/04/07 00:31:46;;;;;;;5.70;2.78;;;;;;;9.21;77.17;98690.53;5059887;28;20064;-64
2022/04/07 00:34:13;;;;;;;8.30;3.03;;;;;;;9.19;76.69;98698.56;5059459;28;20048;-64
2022/04/07 00:36:41;;;;;;;13.60;2.83;;;;;;;9.11;78.13;98696.56;5059044;28;20067;-64
2022/04/07 00:39:08;;;;;;;6.57;2.40;;;;;;;9.02;77.75;98689.47;5063348;28;20501;-64
2022/04/07 00:41:37;;;;;;;7.78;3.15;;;;;;;9.06;77.81;98685.63;5061724;28;20170;-64
2022/04/07 00:44:08;;;;;;;7.00;2.33;;;;;;;9.01;78.56;98674.69;5061946;28;20496;-64
2022/04/07 00:46:37;;;;;;;8.05;2.95;;;;;;;8.97;78.38;98678.50;5059605;28;20059;-64
2022/04/07 00:49:05;;;;;;;4.50;2.00;;;;;;;8.96;78.23;98673.38;5061358;28;20092;-65
2022/04/07 00:51:33;;;;;;;5.13;2.72;;;;;;;8.98;78.08;98667.03;5059478;28;20048;-63
2022/04/07 00:54:01;;;;;;;7.97;2.20;;;;;;;8.99;77.91;98667.88;5054436;28;20053;-65
2022/04/07 00:56:28;;;;;;;8.00;3.53;;;;;;;9.00;77.93;98673.00;5063354;28;20056;-63
2022/04/07 00:58:55;;;;;;;6.82;2.63;;;;;;;8.97;78.18;98662.75;5044335;28;20074;-63
2022/04/07 01:01:24;;;;;;;5.28;2.63;;;;;;;8.94;77.42;98664.81;5047810;28;20052;-62
2022/04/07 01:03:52;;;;;;;5.57;2.53;;;;;;;8.89;78.19;98649.44;5059625;28;20048;-64
2022/04/07 01:06:19;;;;;;;10.25;2.80;;;;;;;8.89;77.85;98644.19;5059736;28;20056;-64
2022/04/07 01:08:46;;;;;;;6.25;2.38;;;;;;;8.84;78.62;98647.22;5059711;28;20060;-63
2022/04/07 01:11:14;;;;;;;10.88;2.95;;;;;;;8.81;78.90;98644.00;5063249;28;20610;-63
2022/04/07 01:13:51;;;;;;;5.53;2.30;;;;;;;8.85;78.94;98648.03;5056736;28;20044;-63
2022/04/07 01:16:20;;;;;;;5.78;2.60;;;;;;;8.82;78.53;98649.13;5063580;28;20094;-62
2022/04/07 01:18:48;;;;;;;6.90;2.83;;;;;;;8.74;79.53;98643.69;5056442;28;20064;-63
2022/04/07 01:21:16;;;;;;;4.38;2.35;;;;;;;8.76;79.34;98647.00;5041234;28;20851;-63
2022/04/07 01:23:55;;;;;;;5.05;2.47;;;;;;;8.83;79.07;98642.94;5042699;28;20125;-64
2022/04/07 01:26:23;;;;;;;6.32;2.70;;;;;;;8.86;78.82;98633.94;5037407;28;20053;-63
2022/04/07 01:28:51;;;;;;;4.82;2.45;;;;;;;8.92;78.31;98641.34;5048257;28;20044;-64
2022/04/07 01:31:18;;;;;;;5.88;3.00;;;;;;;8.95;78.36;98633.19;5063004;28;20072;-63
2022/04/07 01:33:45;;;;;;;5.97;2.95;;;;;;;8.98;78.54;98624.22;5058877;28;20056;-63
2022/04/07 01:36:13;;;;;;;7.90;3.00;;;;;;;8.97;78.94;98618.16;5040195;28;20059;-64
2022/04/07 01:38:40;;;;;;;5.45;2.88;;;;;;;8.94;78.73;98615.78;5044225;28;20092;-64
2022/04/07 01:41:08;;;;;;;7.10;2.88;;;;;;;8.85;79.04;98620.00;5042410;28;20057;-64
2022/04/07 01:43:35;;;;;;;8.02;3.30;;;;;;;8.84;79.31;98615.72;5055054;28;20047;-64
2022/04/07 01:46:03;;;;;;;9.63;3.95;;;;;;;8.83;79.24;98615.88;5057826;28;20114;-63
2022/04/07 01:48:30;;;;;;;4.85;2.58;;;;;;;8.81;79.61;98607.28;5059659;28;20051;-63
2022/04/07 01:50:57;;;;;;;5.85;3.30;;;;;;;8.78;79.77;98599.66;5055112;28;20425;-61
2022/04/07 01:53:25;;;;;;;4.03;2.95;;;;;;;8.73;80.66;98597.41;5042516;28;20064;-63
2022/04/07 01:55:53;;;;;;;6.30;2.85;;;;;;;8.76;80.70;98602.41;5060896;28;21110;-63
2022/04/07 01:58:20;;;;;;;11.43;3.50;;;;;;;8.75;80.69;98605.16;5057541;28;20053;-63
2022/04/07 02:00:47;;;;;;;9.57;3.65;;;;;;;8.73;80.90;98607.06;5041797;28;20648;-65
2022/04/07 02:03:14;;;;;;;7.07;3.17;;;;;;;8.70;81.10;98615.22;5065179;28;20064;-64
2022/04/07 02:05:41;;;;;;;7.25;4.03;;;;;;;8.72;80.98;98603.63;5060848;28;20658;-63
2022/04/07 02:08:08;;;;;;;7.07;3.20;;;;;;;8.76;80.93;98604.19;5067049;28;20057;-62
2022/04/07 02:10:36;;;;;;;7.07;3.55;;;;;;;8.78;80.93;98605.75;5060278;28;20052;-65
2022/04/07 02:13:03;;;;;;;5.47;3.33;;;;;;;8.77;81.63;98596.19;5062737;28;20091;-64
2022/04/07 02:15:30;;;;;;;9.05;3.88;;;;;;;8.75;81.74;98590.25;5058083;28;20400;-64
2022/04/07 02:17:57;;;;;;;7.78;3.50;;;;;;;8.83;81.38;98595.69;5065879;28;20079;-64
2022/04/07 02:20:24;;;;;;;8.73;4.10;;;;;;;8.88;81.23;98588.25;5057497;28;20052;-64
2022/04/07 02:22:52;;;;;;;9.30;4.32;;;;;;;8.84;81.00;98580.78;5061958;28;20596;-66
2022/04/07 02:25:23;;;;;;;7.25;3.83;;;;;;;8.78;81.56;98583.91;5065121;28;20056;-61
2022/04/07 02:27:50;;;;;;;6.68;3.90;;;;;;;8.73;82.13;98583.47;5041261;28;20052;-64
2022/04/07 02:30:17;;;;;;;6.93;4.13;;;;;;;8.69;82.18;98582.06;5067119;28;20055;-63
2022/04/07 02:32:45;;;;;;;7.30;4.00;;;;;;;8.64;82.63;98582.44;5047733;28;20219;-65
2022/04/07 02:35:13;;;;;;;6.65;4.38;;;;;;;8.56;83.23;98567.38;5047326;28;20060;-64
2022/04/07 02:37:40;;;;;;;6.72;3.45;;;;;;;8.55;83.80;98567.47;5067634;28;20058;-63
2022/04/07 02:40:07;;;;;;;8.00;4.47;;;;;;;8.50;84.05;98561.78;5063149;28;20048;-64
2022/04/07 02:42:35;;;;;;;10.43;4.53;;;;;;;8.45;84.34;98567.41;5065569;28;20064;-62
2022/04/07 02:45:03;;;;;;;7.72;3.97;;;;;;;8.51;84.60;98566.06;5068717;28;20055;-63
2022/04/07 02:47:35;;;;;;;7.57;4.30;;;;;;;8.48;84.30;98563.72;5063261;28;20053;-63
2022/04/07 02:50:02;;;;;;;9.02;4.53;;;;;;;8.47;84.31;98554.19;5061951;28;20054;-65
2022/04/07 02:52:30;;;;;;;10.05;4.03;;;;;;;8.47;84.46;98546.31;5064108;28;20071;-61
2022/04/07 02:54:57;;;;;;;6.53;4.30;;;;;;;8.41;85.02;98549.44;5059727;28;20048;-64
2022/04/07 02:57:24;;;;;;;7.63;4.78;;;;;;;8.37;85.38;98554.09;5059540;28;20052;-65
2022/04/07 02:59:52;;;;;;;6.28;4.47;;;;;;;8.34;85.69;98544.69;5063484;28;20052;-64
2022/04/07 03:02:19;;;;;;;8.25;4.32;;;;;;;8.36;85.16;98542.78;5066183;28;20063;-65
2022/04/07 03:04:47;;;;;;;12.88;5.05;;;;;;;8.34;85.90;98555.16;5064350;28;20412;-63
2022/04/07 03:07:14;;;;;;;6.32;4.30;;;;;;;8.38;85.92;98550.53;5048337;28;20064;-65
2022/04/07 03:09:41;;;;;;;9.80;4.40;;;;;;;8.35;85.67;98543.72;5069395;28;20544;-65
2022/04/07 03:12:09;;;;;;;6.72;4.50;;;;;;;8.37;85.82;98551.47;5055609;28;20064;-64
2022/04/07 03:14:36;;;;;;;10.82;4.75;;;;;;;8.38;85.72;98537.44;5068702;28;20055;-66
2022/04/07 03:17:03;;;;;;;7.65;4.82;;;;;;;8.36;85.60;98536.69;5061638;28;20052;-64
2022/04/07 03:19:31;;;;;;;7.75;4.20;;;;;;;8.31;86.51;98531.00;5066010;28;20052;-63
2022/04/07 03:21:58;;;;;;;10.32;5.13;;;;;;;8.30;86.42;98527.53;5059825;28;20391;-64
2022/04/07 03:24:25;;;;;;;8.85;5.07;;;;;;;8.32;86.52;98509.88;5065231;28;20049;-63
2022/04/07 03:27:06;;;;;;;10.95;4.65;;;;;;;8.27;86.71;98509.44;5063207;28;20053;-65
2022/04/07 03:29:34;;;;;;;8.10;4.68;;;;;;;8.26;87.16;98502.53;5063017;28;20059;-63
2022/04/07 03:32:03;;;;;;;7.90;4.55;;;;;;;8.27;87.02;98504.19;5067727;28;20527;-63
2022/04/07 03:34:31;;;;;;;8.68;4.28;;;;;;;8.31;86.69;98499.53;5069226;28;20059;-63
2022/04/07 03:36:58;;;;;;;7.82;4.32;;;;;;;8.30;87.16;98492.63;5054767;28;20571;-64
2022/04/07 03:39:25;;;;;;;11.20;5.30;;;;;;;8.26;87.21;98483.34;5047606;28;20056;-66
2022/04/07 03:41:52;;;;;;;6.68;4.22;;;;;;;8.25;86.87;98481.72;5066545;28;20040;-63
2022/04/07 03:44:19;;;;;;;7.07;4.47;;;;;;;8.21;87.45;98480.28;5070726;28;20050;-64
2022/04/07 03:46:46;;;;;;;6.80;4.90;;;;;;;8.22;87.53;98476.72;5068720;28;20806;-63
2022/04/07 03:49:13;;;;;;;7.32;4.32;;;;;;;8.24;87.50;98483.50;5062173;28;22019;-66
2022/04/07 03:51:41;;;;;;;9.35;4.75;;;;;;;8.24;87.56;98480.88;5066413;28;20055;-64
2022/04/07 03:54:10;;;;;;;8.75;4.50;;;;;;;8.26;87.25;98480.75;5062510;28;20044;-64
2022/04/07 03:56:38;;;;;;;7.13;4.30;;;;;;;8.28;87.19;98474.38;5068835;28;20049;-61
2022/04/07 03:59:05;;;;;;;6.63;4.43;;;;;;;8.30;87.27;98479.53;5060405;28;20049;-61
2022/04/07 04:01:32;;;;;;;8.50;4.50;;;;;;;8.28;87.25;98474.38;5066784;28;20071;-63
2022/04/07 04:04:01;;;;;;;8.88;4.53;;;;;;;8.28;87.64;98478.81;5067982;28;20714;-63
2022/04/07 04:06:28;;;;;;;5.85;4.20;;;;;;;8.36;87.68;98469.38;5062697;28;20055;-63
2022/04/07 04:08:56;;;;;;;8.32;3.75;;;;;;;8.42;86.91;98470.66;5061177;28;20052;-63
2022/04/07 04:11:23;;;;;;;8.27;3.95;;;;;;;8.41;86.89;98461.13;5063310;28;20055;-62
2022/04/07 04:13:50;;;;;;;11.00;4.35;;;;;;;8.38;87.26;98452.72;5067514;28;20057;-63
2022/04/07 04:16:17;;;;;;;10.50;4.13;;;;;;;8.40;87.78;98461.25;5044983;28;20524;-64
2022/04/07 04:18:45;;;;;;;7.25;3.75;;;;;;;8.42;87.45;98465.44;5064052;28;20048;-60
2022/04/07 04:21:12;;;;;;;11.32;4.57;;;;;;;8.47;87.07;98454.56;5049659;28;20523;-60
2022/04/07 04:23:40;;;;;;;8.77;3.97;;;;;;;8.47;87.37;98446.69;5047474;28;20056;-63
2022/04/07 04:26:08;;;;;;;10.07;4.35;;;;;;;8.46;87.01;98448.44;5063493;28;20059;-62
2022/04/07 04:28:35;;;;;;;8.20;4.22;;;;;;;8.53;87.28;98449.59;5063245;28;20056;-63
2022/04/07 04:31:02;;;;;;;6.45;4.28;;;;;;;8.57;87.13;98434.44;5063174;28;20056;-63
2022/04/07 04:33:29;;;;;;;7.38;4.10;;;;;;;8.59;86.99;98432.50;5058336;28;20071;-65
2022/04/07 04:35:58;;;;;;;8.20;4.13;;;;;;;8.57;86.66;98431.81;5063768;28;20056;-64
2022/04/07 04:38:25;;;;;;;6.65;3.35;;;;;;;8.57;86.80;98422.16;5062155;28;20053;-60
2022/04/07 04:40:53;;;;;;;6.25;3.88;;;;;;;8.60;86.93;98413.19;5055433;28;20060;-65
2022/04/07 04:43:20;;;;;;;6.75;3.83;;;;;;;8.65;86.74;98415.44;5064950;28;20056;-64
2022/04/07 04:45:47;;;;;;;4.15;3.47;;;;;;;8.64;86.48;98411.94;5061823;28;20044;-63
2022/04/07 04:48:14;;;;;;;7.57;3.42;;;;;;;8.66;86.55;98411.84;5063535;28;20060;-64
2022/04/07 04:50:41;;;;;;;6.72;3.40;;;;;;;8.68;86.32;98410.72;5058734;28;20518;-64
2022/04/07 04:53:09;;;;;;;7.07;3.33;;;;;;;8.70;86.37;98405.38;5045243;28;20056;-64
2022/04/07 04:55:36;;;;;;;5.65;3.20;;;;;;;8.75;86.09;98398.75;5061734;28;20056;-64
2022/04/07 04:58:03;;;;;;;6.90;3.38;;;;;;;8.79;85.82;98400.16;5050118;28;20048;-63
2022/04/07 05:00:30;;;;;;;4.50;3.40;;;;;;;8.74;85.76;98415.47;5058140;28;20449;-64
2022/04/07 05:02:57;;;;;;;6.85;3.28;;;;;;;8.76;85.33;98394.34;5046346;28;20060;-64
2022/04/07 05:05:25;;;;;;;7.57;3.30;;;;;;;8.74;85.25;98397.09;5061827;28;20060;-64
2022/04/07 05:07:52;;;;;;;6.93;3.20;;;;;;;8.73;85.83;98389.34;5044669;28;20053;-64
2022/04/07 05:10:19;;;;;;;10.73;3.35;;;;;;;8.75;85.47;98392.69;5063415;28;20167;-64
2022/04/07 05:12:46;;;;;;;8.90;3.42;;;;;;;8.74;85.88;98383.16;5066258;28;20053;-64
2022/04/07 05:15:13;;;;;;;7.72;3.47;;;;;;;8.77;85.45;98377.63;5065817;28;20060;-65
2022/04/07 05:17:40;;;;;;;8.07;3.58;;;;;;;8.82;86.04;98370.19;5066118;28;20053;-64
2022/04/07 05:20:08;;;;;;;7.25;3.17;;;;;;;8.80;84.88;98365.06;5065923;28;20049;-64
2022/04/07 05:22:36;;;;;;;4.65;3.15;;;;;;;8.78;85.54;98374.88;5061883;28;20087;-64
2022/04/07 05:25:04;;;;;;;6.53;3.30;;;;;;;8.79;86.24;98370.47;5064163;28;20401;-64
2022/04/07 05:27:36;;;;;;;5.53;3.05;;;;;;;8.78;85.89;98364.41;5066198;28;20063;-63
2022/04/07 05:30:05;;;;;;;6.57;3.22;;;;;;;8.80;85.70;98364.25;5045147;28;20576;-65
2022/04/07 05:32:32;;;;;;;5.18;3.10;;;;;;;8.82;85.83;98347.38;5063154;28;20501;-64
2022/04/07 05:34:59;;;;;;;6.47;3.03;;;;;;;8.80;85.61;98362.44;5064685;28;20068;-64
2022/04/07 05:37:26;;;;;;;5.63;2.78;;;;;;;8.80;86.26;98346.72;5060902;28;20053;-64
2022/04/07 05:39:53;;;;;;;3.90;2.85;;;;;;;8.79;85.77;98354.72;5057963;28;20413;-66
2022/04/07 05:42:20;;;;;;;5.53;3.30;;;;;;;8.83;86.49;98345.63;5061534;28;20075;-64
2022/04/07 05:44:48;;;;;;;5.15;2.92;;;;;;;8.86;86.42;98345.34;5043527;28;20064;-66
2022/04/07 05:47:15;;;;;;;3.78;2.80;;;;;;;8.88;85.96;98338.19;5065149;28;20056;-64
2022/04/07 05:49:42;;;;;;;5.75;3.03;;;;;;;8.94;86.63;98326.28;5064814;28;20068;-65
2022/04/07 05:52:10;;;;;;;6.07;2.72;;;;;;;8.99;86.28;98340.66;5065274;28;20065;-65
2022/04/07 05:54:38;;;;;;;10.55;3.20;;;;;;;9.05;85.40;98321.75;5060421;28;20041;-65
2022/04/07 05:57:05;;;;;;;5.38;3.20;;;;;;;9.16;85.61;98333.91;5061489;28;20045;-68
2022/04/07 05:59:32;;;;;;;6.50;3.83;;;;;;;9.27;84.73;98312.75;5063748;28;20063;-64
2022/04/07 06:01:59;;;;;;;8.40;2.88;;;;;;;9.39;83.70;98324.78;5061025;28;20123;-64
2022/04/07 06:04:26;;;;;;;6.13;3.72;;;;;;;9.47;84.23;98324.09;5065142;28;20492;-64
2022/04/07 06:06:54;;;;;;;7.10;3.08;;;;;;;9.52;83.16;98319.25;5065759;28;20044;-64
2022/04/07 06:09:21;;;;;;;5.78;2.63;;;;;;;9.54;83.36;98317.31;5069911;28;20064;-65
2022/04/07 06:11:48;;;;;;;5.13;2.83;;;;;;;9.60;83.39;98318.56;5067108;28;20063;-64
2022/04/07 06:14:16;;;;;;;4.75;2.83;;;;;;;9.64;82.83;98328.66;5066502;28;20466;-64
2022/04/07 06:16:43;;;;;;;5.53;2.75;;;;;;;9.72;82.17;98314.78;5064906;28;20052;-64
2022/04/07 06:19:10;;;;;;;4.65;2.58;;;;;;;9.79;82.14;98313.25;5060081;28;20053;-65
2022/04/07 06:21:37;;;;;;;4.07;2.72;;;;;;;9.84;82.04;98311.03;5065627;28;20123;-64
2022/04/07 06:24:05;;;;;;;6.38;2.47;;;;;;;9.92;81.45;98315.59;5067543;28;20049;-64
2022/04/07 06:26:32;;;;;;;6.53;3.00;;;;;;;9.95;81.03;98331.09;5065276;28;20036;-64
2022/04/07 06:28:59;;;;;;;5.20;2.92;;;;;;;9.96;81.42;98298.56;5048609;28;20058;-63
2022/04/07 06:31:26;;;;;;;6.85;2.85;;;;;;;9.98;81.12;98307.13;5065760;28;20147;-64
2022/04/07 06:33:57;;;;;;;6.47;2.88;;;;;;;10.00;80.75;98304.38;5060396;28;20147;-64
2022/04/07 06:36:34;;;;;;;5.13;2.80;;;;;;;10.08;80.57;98301.81;5061976;28;20048;-64
2022/04/07 06:39:01;;;;;;;3.55;2.35;;;;;;;10.11;80.05;98298.91;5065634;28;20061;-64
2022/04/07 06:41:33;;;;;;;4.68;2.90;;;;;;;10.22;80.39;98292.63;5065813;28;20063;-64
2022/04/07 06:44:01;;;;;;;4.13;2.00;;;;;;;10.31;79.43;98287.38;5064210;28;20505;-63
2022/04/07 06:46:28;;;;;;;3.72;2.17;;;;;;;10.39;78.85;98284.00;5066519;28;20069;-66
2022/04/07 06:48:55;;;;;;;3.25;1.98;;;;;;;10.29;79.12;98283.25;5070454;28;20670;-65
2022/04/07 06:51:22;;;;;;;3.47;2.55;;;;;;;10.32;78.44;98281.16;5069058;28;20512;-65
2022/04/07 06:53:49;;;;;;;5.68;2.38;;;;;;;10.41;78.14;98273.38;5065781;28;20594;-63
2022/04/07 06:56:16;;;;;;;8.77;2.50;;;;;;;10.58;77.44;98264.66;5068363;28;20174;-63
2022/04/07 06:58:43;;;;;;;3.63;2.20;;;;;;;10.69;77.36;98276.78;5072983;28;20045;-63
2022/04/07 07:01:11;;;;;;;7.93;2.42;;;;;;;10.79;77.31;98256.50;5067925;28;20135;-63
2022/04/07 07:03:38;;;;;;;4.63;2.08;;;;;;;10.84;76.74;98256.88;5069074;28;20044;-63
2022/04/07 07:06:05;;;;;;;4.20;2.10;;;;;;;10.87;76.45;98256.56;5051308;28;20144;-63
2022/04/07 07:08:32;;;;;;;3.65;2.28;;;;;;;10.90;75.84;98245.75;5072066;28;20487;-64
2022/04/07 07:11:00;;;;;;;4.45;2.60;;;;;;;10.85;75.06;98258.50;5064373;28;20058;-63
2022/04/07 07:13:27;;;;;;;3.75;2.55;;;;;;;10.85;75.37;98254.09;5063325;28;20061;-64
2022/04/07 07:15:54;;;;;;;3.80;2.20;;;;;;;10.81;75.16;98241.41;5066939;28;21028;-64
2022/04/07 07:18:22;;;;;;;4.68;2.70;;;;;;;10.93;75.33;98248.06;5064331;28;20053;-64
2022/04/07 07:20:49;;;;;;;3.83;2.33;;;;;;;11.05;74.17;98240.78;5062657;28;20060;-64
2022/04/07 07:23:16;;;;;;;4.30;2.28;;;;;;;11.15;73.82;98213.38;5064733;28;20048;-64
2022/04/07 07:25:44;;;;;;;4.78;2.20;;;;;;;11.39;72.49;98235.59;5064263;28;20052;-64
2022/04/07 07:28:11;;;;;;;4.05;1.80;;;;;;;11.49;72.38;98230.25;5048326;28;20059;-64
2022/04/07 07:30:38;;;;;;;4.50;2.05;;;;;;;11.72;71.52;98212.09;5064692;28;20049;-65
2022/04/07 07:33:06;;;;;;;5.03;2.15;;;;;;;12.01;69.96;98203.88;5069614;28;20054;-65
2022/04/07 07:35:33;;;;;;;3.45;2.15;;;;;;;12.04;68.83;98196.47;5042268;28;20421;-65
2022/04/07 07:38:02;;;;;;;5.53;2.60;;;;;;;12.21;68.63;98204.44;5051171;28;20382;-64
2022/04/07 07:40:31;;;;;;;4.68;2.10;;;;;;;12.07;68.46;98193.53;5047985;28;20048;-65
2022/04/07 07:43:00;;;;;;;4.40;1.75;;;;;;;11.97;68.95;98176.97;5069057;28;20513;-64
2022/04/07 07:45:29;;;;;;;3.85;1.90;;;;;;;11.96;68.58;98180.59;5050696;28;20064;-64
2022/04/07 07:48:18;;;;;;;6.45;1.85;;;;;;;12.14;68.47;98188.41;5070573;28;20803;-64
2022/04/07 07:50:45;;;;;;;5.78;1.73;;;;;;;12.36;67.54;98206.28;5064304;28;20048;-64
2022/04/07 07:53:20;;;;;;;4.05;1.80;;;;;;;12.32;66.26;98185.66;5070860;28;20063;-64
2022/04/07 07:55:47;;;;;;;2.45;1.35;;;;;;;12.33;65.66;98167.03;5065140;28;20045;-65
2022/04/07 07:58:15;;;;;;;2.88;1.67;;;;;;;12.34;65.61;98160.78;5061684;28;20041;-65
2022/04/07 08:00:42;;;;;;;3.42;1.80;;;;;;;12.40;65.54;98173.31;5057504;22;20036;-72
2022/04/07 08:03:09;;;;;;;4.65;1.48;;;;;;;12.56;64.91;98140.03;5060954;28;20044;-73
2022/04/07 08:05:37;;;;;;;6.05;1.77;;;;;;;12.34;65.19;98139.69;5054400;28;20140;-72
2022/04/07 08:08:04;;;;;;;2.58;1.45;;;;;;;12.39;65.11;98163.75;5053732;28;20050;-71
2022/04/07 08:10:32;;;;;;;3.25;1.60;;;;;;;12.70;64.57;98141.19;5030913;28;20356;-71
2022/04/07 08:12:59;;;;;;;4.47;2.13;;;;;;;12.97;63.58;98142.66;5037988;28;20140;-70
2022/04/07 08:15:27;;;;;;;3.65;1.23;;;;;;;12.82;64.19;98138.06;5048159;28;20052;-72
2022/04/07 08:17:58;;;;;;;3.95;1.77;;;;;;;12.84;64.26;98141.38;5055769;28;20041;-72
2022/04/07 08:20:25;;;;;;;3.10;1.52;;;;;;;12.78;65.08;98133.28;5025379;28;20051;-72
2022/04/07 08:22:52;;;;;;;2.70;1.52;;;;;;;12.95;64.48;98134.09;5051069;28;20139;-72
2022/04/07 08:25:19;;;;;;;2.65;1.40;;;;;;;13.06;64.18;98110.81;5066005;28;20071;-72
2022/04/07 08:27:46;;;;;;;9.18;1.70;;;;;;;13.21;63.20;98136.56;5074029;28;20493;-71
2022/04/07 08:30:13;;;;;;;4.82;1.33;;;;;;;13.11;62.75;98118.25;5023348;28;20426;-71
2022/04/07 08:32:41;;;;;;;4.15;1.65;;;;;;;13.10;63.23;98113.94;5015672;28;20047;-70
2022/04/07 08:35:11;;;;;;;3.25;1.27;;;;;;;13.19;62.86;98091.78;5053513;28;20040;-72
2022/04/07 08:37:39;;;;;;;2.85;1.02;;;;;;;13.58;61.37;98093.69;5071127;28;20057;-72
2022/04/07 08:40:07;;;;;;;2.47;1.30;;;;;;;13.62;60.75;98079.13;5052471;28;20049;-72
2022/04/07 08:42:35;;;;;;;9.82;1.48;;;;;;;13.32;61.51;98094.75;5036338;28;20064;-70
2022/04/07 08:45:03;;;;;;;6.45;1.27;;;;;;;13.26;60.69;98084.06;5058774;28;20052;-71
2022/04/07 08:47:33;;;;;;;2.05;1.15;;;;;;;13.35;60.63;98102.34;5052793;28;20060;-71
2022/04/07 08:50:03;;;;;;;4.35;1.52;;;;;;;13.83;59.87;98075.91;5056290;28;20044;-71
2022/04/07 08:52:30;;;;;;;2.47;1.10;;;;;;;13.83;59.21;98076.72;5031552;28;20032;-72
2022/04/07 08:54:57;;;;;;;2.42;1.10;;;;;;;13.86;58.35;98078.19;5032173;28;20063;-71
2022/04/07 08:57:26;;;;;;;1.80;1.13;;;;;;;13.64;58.72;98107.06;5039587;28;20052;-71
2022/04/07 08:59:53;;;;;;;4.00;1.75;;;;;;;13.40;60.64;98093.91;5059768;28;20032;-71
2022/04/07 09:02:21;;;;;;;3.47;1.00;;;;;;;13.53;60.33;98081.00;5039049;28;20108;-71
2022/04/07 09:04:48;;;;;;;1.45;0.85;;;;;;;13.37;60.53;98058.09;5032862;28;20048;-71
2022/04/07 09:07:15;;;;;;;1.45;1.00;;;;;;;13.40;60.64;98067.50;5039916;28;20049;-71
2022/04/07 09:09:42;;;;;;;3.35;1.20;;;;;;;13.45;60.81;98049.31;5045338;28;20059;-71
2022/04/07 09:12:10;;;;;;;0.90;0.70;;;;;;;13.61;59.64;98049.25;5032947;28;20059;-71
2022/04/07 09:14:37;;;;;;;1.35;0.98;;;;;;;13.91;59.57;98042.31;5048732;28;20041;-71
2022/04/07 09:17:05;;;;;;;1.65;0.90;;;;;;;14.12;58.42;98049.59;5024118;28;20041;-71
2022/04/07 09:19:34;;;;;;;2.08;0.60;;;;;;;14.08;57.97;98044.84;5030732;28;20140;-70
2022/04/07 09:22:08;;;;;;;2.13;0.80;;;;;;;13.92;59.24;98045.78;5066708;28;20072;-71
2022/04/07 09:24:36;;;;;;;1.77;0.80;;;;;;;14.16;58.55;98042.13;5057884;28;20040;-71
2022/04/07 09:27:05;;;;;;;1.05;0.73;;;;;;;14.25;58.79;98005.84;5032626;28;20140;-72
2022/04/07 09:29:42;;;;;;;0.80;0.70;;;;;;;14.20;57.99;98061.97;5048771;28;20063;-72
2022/04/07 09:32:20;;;;;;;0.70;0.70;;;;;;;14.13;58.42;98006.25;5024843;28;20135;-73
2022/04/07 09:34:58;;;;;;;2.22;1.02;;;;;;;14.11;58.17;97992.41;5031810;28;20417;-72
2022/04/07 09:37:26;;;;;;;2.17;1.00;;;;;;;14.12;57.88;97988.75;5063786;28;20418;-73
2022/04/07 09:40:12;;;;;;;6.70;1.67;;;;;;;14.17;57.99;97967.88;5033024;28;20044;-72
2022/04/07 09:42:41;;;;;;;;;;;;;;;14.04;58.35;97991.44;5035876;28;20167;-72
2022/04/07 09:45:13;;;;;;;1.63;0.90;;;;;;;14.16;58.13;97953.00;5046659;28;20389;-72
2022/04/07 09:47:45;;;;;;;1.48;0.60;;;;;;;14.08;57.29;97950.41;5025930;28;20681;-71
2022/04/07 09:50:33;;;;;;;2.45;0.77;;;;;;;13.98;58.11;97946.38;5032126;28;20304;-72
2022/04/07 09:53:03;;;;;;;2.80;0.70;;;;;;;13.99;58.40;97961.25;5067156;28;20113;-73
2022/04/07 09:55:42;;;;;;;1.10;0.65;;;;;;;13.96;59.21;97974.81;5043883;28;20053;-71
2022/04/07 09:58:12;;;;;;;1.55;0.80;;;;;;;13.76;58.79;97943.56;5043679;28;20554;-72
2022/04/07 10:00:39;;;;;;;3.03;0.80;;;;;;;13.52;58.92;97947.19;5046422;28;20040;-72
2022/04/07 10:03:10;;;;;;;1.55;0.93;;;;;;;13.43;59.07;97950.88;5049005;28;20062;-72
2022/04/07 10:05:38;;;;;;;1.83;0.77;;;;;;;13.43;59.59;97953.53;5060160;28;20067;-72
2022/04/07 10:08:17;;;;;;;2.30;0.80;;;;;;;13.39;59.39;97931.09;5034258;28;20280;-73
2022/04/07 10:10:45;;;;;;;5.53;1.05;;;;;;;13.43;58.60;97921.81;5025899;28;20163;-71
2022/04/07 10:13:14;;;;;;;0.98;0.63;;;;;;;13.45;59.18;97905.78;5037573;28;20061;-73
2022/04/07 10:15:42;;;;;;;1.02;0.68;;;;;;;13.70;57.54;97890.59;5040374;28;20044;-72
2022/04/07 10:18:16;;;;;;;6.57;0.93;;;;;;;14.14;56.03;97957.66;5042963;28;20049;-73
2022/04/07 10:20:47;;;;;;;0.60;0.60;;;;;;;14.50;55.46;97892.66;5030981;28;20113;-73
2022/04/07 10:23:46;;;;;;;4.93;0.77;;;;;;;14.49;55.26;97865.38;5048185;28;20049;-73
2022/04/07 10:26:14;;;;;;;1.90;0.70;;;;;;;14.38;55.53;97890.44;5030305;28;20044;-73
2022/04/07 10:28:41;;;;;;;2.83;0.63;;;;;;;14.04;56.86;97853.91;5057764;28;20044;-72
2022/04/07 10:31:15;;;;;;;1.92;0.55;;;;;;;13.77;56.50;97860.59;5013145;28;20122;-73
2022/04/07 10:33:48;;;;;;;1.58;0.70;;;;;;;13.74;56.73;97849.56;5030469;28;20048;-73
2022/04/07 10:36:23;;;;;;;2.75;0.50;;;;;;;13.70;57.48;97827.94;5048157;28;20163;-72
2022/04/07 10:38:51;;;;;;;1.63;0.68;;;;;;;13.71;57.38;97839.34;5026310;28;20161;-73
2022/04/07 10:41:37;;;;;;;2.58;0.52;;;;;;;13.55;57.59;97827.06;5069163;28;20044;-72
2022/04/07 10:44:10;;;;;;;1.10;0.77;;;;;;;13.49;58.50;97818.03;5068615;28;20056;-72
2022/04/07 10:46:38;;;;;;;1.55;0.70;;;;;;;13.60;58.66;97798.31;5029462;28;20048;-73
2022/04/07 10:49:07;;;;;;;2.80;0.80;;;;;;;13.53;58.04;97798.19;5047920;28;20068;-73
2022/04/07 10:51:45;;;;;;;2.45;0.90;;;;;;;13.44;60.31;97799.25;5031318;28;20391;-72
2022/04/07 10:54:12;;;;;;;2.85;0.70;;;;;;;13.32;59.86;97763.66;5047436;28;20041;-73
2022/04/07 10:56:48;;;;;;;1.23;0.77;;;;;;;13.29;60.96;97777.25;5061833;28;20058;-72
2022/04/07 10:59:27;;;;;;;1.98;0.90;;;;;;;13.18;61.51;97752.03;5048333;28;20051;-72
2022/04/07 11:02:04;;;;;;;3.70;0.90;;;;;;;13.13;62.83;97773.69;5028086;28;20067;-72
2022/04/07 11:04:43;;;;;;;3.38;0.80;;;;;;;13.09;63.79;97776.84;5025780;28;20047;-74
2022/04/07 11:07:13;;;;;;;5.97;2.08;;;;;;;13.00;64.47;97759.41;5045684;28;20094;-78
2022/04/07 11:09:53;;;;;;;1.20;0.73;;;;;;;12.88;64.35;97732.63;5031893;28;20058;-76
2022/04/07 11:12:37;;;;;;;1.52;0.80;;;;;;;12.76;65.35;97723.44;5051888;28;20175;-75
2022/04/07 11:15:05;;;;;;;4.45;0.95;;;;;;;12.76;65.96;97719.00;5019707;28;20045;-76
2022/04/07 11:17:37;;;;;;;2.88;1.02;;;;;;;12.71;66.10;97718.69;5049941;28;20065;-76
2022/04/07 11:20:05;;;;;;;2.35;0.98;;;;;;;12.76;66.68;97715.53;5037170;28;20045;-75
2022/04/07 11:22:56;;;;;;;1.67;0.70;;;;;;;12.82;65.31;97706.91;5032169;28;20072;-76
2022/04/07 11:25:24;;;;;;;1.20;0.65;;;;;;;12.86;65.03;97703.72;5042533;28;20044;-76
2022/04/07 11:28:17;;;;;;;3.53;0.80;;;;;;;12.95;65.12;97691.28;5030553;28;20064;-76
2022/04/07 11:30:54;;;;;;;6.35;1.45;;;;;;;12.89;65.33;97681.44;5024860;28;20044;-76
2022/04/07 11:33:27;;;;;;;4.72;0.60;;;;;;;12.95;63.65;97666.72;5029573;28;20056;-75
2022/04/07 11:36:00;;;;;;;4.55;0.98;;;;;;;12.88;63.21;97666.63;5070099;28;20070;-76
2022/04/07 11:38:32;;;;;;;2.55;0.82;;;;;;;12.91;63.58;97659.13;5064543;28;20040;-76
2022/04/07 11:41:07;;;;;;;2.20;0.73;;;;;;;12.97;63.27;97656.78;5040675;28;20155;-75
2022/04/07 11:43:37;;;;;;;0.80;0.60;;;;;;;13.05;63.32;97631.13;5049042;28;20041;-75
2022/04/07 11:46:06;;;;;;;3.83;2.08;;;;;;;13.08;62.79;97617.56;5029775;28;20486;-76